Time;durP1;ratioP1;P1;durP2;ratioP2;P2;SDS_P1;SDS_P2;PMS_P1;PMS_P2;Temp;Humidity;BMP_temperature;BMP_pressure;BME280_temperature;BME280_humidity;BME280_pressure;Samples;Min_cycle;Max_cycle;Signal;HPM_P1;HPM_P2
2023/03/10 00:00:38;;;;;;;28.30;15.63;;;1.80;99.90;;;;;;5094086;28;20059;-58
2023/03/10 00:03:04;;;;;;;29.95;16.15;;;1.60;99.90;;;;;;5093659;28;20072;-59
2023/03/10 00:05:30;;;;;;;35.08;17.83;;;1.90;99.90;;;;;;5093656;28;20079;-58
2023/03/10 00:07:56;;;;;;;34.65;18.60;;;2.10;99.90;;;;;;5093404;28;20040;-58
2023/03/10 00:10:22;;;;;;;34.75;17.88;;;1.40;99.90;;;;;;5093564;28;20044;-58
2023/03/10 00:12:47;;;;;;;36.78;19.48;;;2.10;99.90;;;;;;5093771;28;20040;-58
2023/03/10 00:15:13;;;;;;;35.78;19.35;;;1.40;99.90;;;;;;5092129;28;20483;-58
2023/03/10 00:17:39;;;;;;;40.22;20.67;;;1.40;99.90;;;;;;5093858;28;20486;-59
2023/03/10 00:20:10;;;;;;;38.63;22.88;;;2.10;99.90;;;;;;5093573;28;20069;-58
2023/03/10 00:22:37;;;;;;;39.50;19.27;;;1.50;99.90;;;;;;5093307;28;20044;-58
2023/03/10 00:25:04;;;;;;;36.15;19.27;;;2.10;99.90;;;;;;5093153;28;20119;-58
2023/03/10 00:27:29;;;;;;;34.58;19.00;;;2.10;99.90;;;;;;5093534;28;20135;-58
2023/03/10 00:29:55;;;;;;;33.47;17.80;;;1.50;99.90;;;;;;5093288;28;20074;-58
2023/03/10 00:32:21;;;;;;;32.15;17.08;;;2.10;99.90;;;;;;5093325;28;20451;-58
2023/03/10 00:34:46;;;;;;;30.45;17.15;;;1.50;99.90;;;;;;5092048;28;20036;-58
2023/03/10 00:37:12;;;;;;;32.03;17.98;;;2.10;99.90;;;;;;5093052;28;20060;-58
2023/03/10 00:39:38;;;;;;;31.40;16.92;;;1.60;99.90;;;;;;5091846;28;20510;-57
2023/03/10 00:42:04;;;;;;;33.90;18.33;;;2.10;99.90;;;;;;5093095;28;20503;-58
2023/03/10 00:44:29;;;;;;;31.50;18.15;;;2.10;99.90;;;;;;5092994;28;20139;-57
2023/03/10 00:46:55;;;;;;;30.85;17.02;;;2.10;99.90;;;;;;5091660;28;20491;-58
2023/03/10 00:49:20;;;;;;;29.10;16.02;;;1.50;99.90;;;;;;5091468;28;20415;-59
2023/03/10 00:51:46;;;;;;;30.70;17.40;;;1.60;99.90;;;;;;5090986;28;20415;-58
2023/03/10 00:54:12;;;;;;;31.00;16.27;;;2.10;99.90;;;;;;5092609;28;20040;-57
2023/03/10 00:56:37;;;;;;;31.27;16.05;;;1.40;99.90;;;;;;5092784;28;20089;-58
2023/03/10 00:59:05;;;;;;;30.63;16.27;;;1.40;99.90;;;;;;5092425;28;20063;-58
2023/03/10 01:01:38;;;;;;;25.73;13.73;;;2.10;99.90;;;;;;5092726;28;20044;-58
2023/03/10 01:04:06;;;;;;;21.75;12.40;;;1.70;99.90;;;;;;5092616;28;20040;-58
2023/03/10 01:06:32;;;;;;;22.55;12.70;;;1.40;99.90;;;;;;5092425;28;20054;-58
2023/03/10 01:08:58;;;;;;;22.90;12.07;;;2.20;99.90;;;;;;5092804;28;20460;-60
2023/03/10 01:11:26;;;;;;;20.23;11.20;;;1.50;99.90;;;;;;5092585;28;20127;-59
2023/03/10 01:13:54;;;;;;;21.33;11.50;;;2.20;99.90;;;;;;5092283;28;20032;-58
2023/03/10 01:16:20;;;;;;;21.70;11.20;;;2.10;99.90;;;;;;5092524;28;20036;-58
2023/03/10 01:18:46;;;;;;;22.67;11.90;;;2.20;99.90;;;;;;5092504;28;20043;-59
2023/03/10 01:21:24;;;;;;;21.45;11.60;;;1.50;99.90;;;;;;5092659;28;20043;-58
2023/03/10 01:23:50;;;;;;;21.13;11.75;;;1.50;99.90;;;;;;5092416;28;20072;-57
2023/03/10 01:26:17;;;;;;;22.27;11.27;;;2.00;99.90;;;;;;5092355;28;20119;-58
2023/03/10 01:28:44;;;;;;;22.63;12.18;;;1.70;99.90;;;;;;5092446;28;20043;-58
2023/03/10 01:31:10;;;;;;;21.98;11.60;;;1.40;99.90;;;;;;5092187;28;20048;-58
2023/03/10 01:33:40;;;;;;;21.63;11.30;;;1.60;99.90;;;;;;5092375;28;20047;-58
2023/03/10 01:36:15;;;;;;;20.33;10.45;;;2.10;99.90;;;;;;5092304;28;20446;-58
2023/03/10 01:38:42;;;;;;;21.02;11.73;;;2.00;99.90;;;;;;5092101;28;20044;-59
2023/03/10 01:41:08;;;;;;;20.10;11.30;;;1.70;99.90;;;;;;5092111;28;20032;-58
2023/03/10 01:43:48;;;;;;;20.48;11.35;;;2.20;99.90;;;;;;5092320;28;20407;-57
2023/03/10 01:46:36;;;;;;;22.65;11.80;;;2.10;99.90;;;;;;5092167;28;20044;-57
2023/03/10 01:49:26;;;;;;;21.00;10.57;;;1.40;99.90;;;;;;5092127;28;20044;-58
2023/03/10 01:52:04;;;;;;;19.58;11.35;;;1.50;99.90;;;;;;5080041;28;20051;-57
2023/03/10 01:54:39;;;;;;;19.63;10.75;;;1.90;99.90;;;;;;5091891;28;20051;-57
2023/03/10 01:57:05;;;;;;;20.33;10.82;;;1.60;99.90;;;;;;5091947;28;20043;-57
2023/03/10 01:59:32;;;;;;;22.15;11.38;;;2.10;99.90;;;;;;5073741;28;20052;-57
2023/03/10 02:02:00;;;;;;;21.05;11.63;;;2.10;99.90;;;;;;5092084;28;20039;-57
2023/03/10 02:04:40;;;;;;;20.90;10.88;;;1.50;99.90;;;;;;5091751;28;20582;-57
2023/03/10 02:07:06;;;;;;;20.33;11.13;;;1.50;99.90;;;;;;5092265;28;20048;-57
2023/03/10 02:09:36;;;;;;;19.30;11.15;;;1.40;99.90;;;;;;5092173;28;20479;-57
2023/03/10 02:12:04;;;;;;;20.98;11.25;;;2.10;99.90;;;;;;5094949;28;20050;-57
2023/03/10 02:14:31;;;;;;;21.80;11.60;;;2.00;99.90;;;;;;5095882;28;20040;-57
2023/03/10 02:16:57;;;;;;;21.08;11.90;;;2.10;99.90;;;;;;5094686;28;20441;-57
2023/03/10 02:19:43;;;;;;;21.90;12.18;;;2.10;99.90;;;;;;5095757;28;20476;-57
2023/03/10 02:22:11;;;;;;;21.58;11.73;;;1.90;99.90;;;;;;5095673;28;20044;-57
2023/03/10 02:25:01;;;;;;;21.55;12.00;;;2.00;99.90;;;;;;5095769;28;20051;-57
2023/03/10 02:27:33;;;;;;;19.60;11.70;;;2.00;99.90;;;;;;5094580;28;20606;-57
2023/03/10 02:30:13;;;;;;;21.13;11.20;;;2.00;99.90;;;;;;5095446;28;20086;-57
2023/03/10 02:32:52;;;;;;;18.55;10.10;;;1.40;99.90;;;;;;5095725;28;20075;-57
2023/03/10 02:35:18;;;;;;;20.35;11.15;;;1.90;99.90;;;;;;5095301;28;20124;-57
2023/03/10 02:37:44;;;;;;;21.08;10.25;;;1.50;99.90;;;;;;5095542;28;20467;-58
2023/03/10 02:40:32;;;;;;;19.02;9.48;;;1.90;99.90;;;;;;5095224;28;20043;-58
2023/03/10 02:43:01;;;;;;;19.58;9.88;;;1.40;99.90;;;;;;5095411;28;20040;-57
2023/03/10 02:45:31;;;;;;;18.33;9.60;;;1.80;99.90;;;;;;5095236;28;20079;-57
2023/03/10 02:47:56;;;;;;;19.95;10.70;;;1.60;99.90;;;;;;5095436;28;20381;-58
2023/03/10 02:50:25;;;;;;;17.42;9.85;;;1.90;99.90;;;;;;5095205;28;20043;-57
2023/03/10 02:53:02;;;;;;;19.30;10.18;;;1.40;99.90;;;;;;5095019;28;20050;-58
2023/03/10 02:55:27;;;;;;;21.67;10.93;;;1.30;99.90;;;;;;5095119;28;20044;-57
2023/03/10 02:57:53;;;;;;;18.60;9.98;;;2.00;99.90;;;;;;5094042;28;20698;-58
2023/03/10 03:00:20;;;;;;;21.27;11.23;;;2.00;99.90;;;;;;5094876;28;20123;-58
2023/03/10 03:02:45;;;;;;;20.90;10.48;;;1.40;99.90;;;;;;5094838;28;20044;-58
2023/03/10 03:05:11;;;;;;;21.33;11.52;;;1.70;99.90;;;;;;5094885;28;20099;-57
2023/03/10 03:07:37;;;;;;;26.13;11.98;;;2.00;99.90;;;;;;5094723;28;20544;-58
2023/03/10 03:10:03;;;;;;;24.25;12.30;;;1.50;99.90;;;;;;5093478;28;20044;-57
2023/03/10 03:12:29;;;;;;;23.45;11.80;;;1.90;99.90;;;;;;5093595;28;20123;-58
2023/03/10 03:14:54;;;;;;;21.08;11.70;;;1.30;99.90;;;;;;5094790;28;20429;-58
2023/03/10 03:17:20;;;;;;;21.67;11.75;;;1.20;99.90;;;;;;5094707;28;20040;-57
2023/03/10 03:19:46;;;;;;;22.10;12.00;;;1.20;99.90;;;;;;5094575;28;20119;-57
2023/03/10 03:22:11;;;;;;;30.55;13.77;;;2.00;99.90;;;;;;5094420;28;20116;-59
2023/03/10 03:24:37;;;;;;;24.67;12.80;;;1.90;99.90;;;;;;5094406;28;20043;-57
2023/03/10 03:27:04;;;;;;;24.70;13.50;;;1.80;99.90;;;;;;5094720;28;20064;-57
2023/03/10 03:29:29;;;;;;;25.52;13.90;;;1.90;99.90;;;;;;5093372;28;20036;-57
2023/03/10 03:31:55;;;;;;;26.20;13.38;;;2.00;99.90;;;;;;5093416;28;20081;-57
2023/03/10 03:34:21;;;;;;;25.48;13.90;;;1.90;99.90;;;;;;5094198;28;20189;-57
2023/03/10 03:36:47;;;;;;;25.88;14.32;;;1.20;99.90;;;;;;5094147;28;20118;-57
2023/03/10 03:39:16;;;;;;;27.67;14.00;;;1.20;99.90;;;;;;5094357;28;20542;-57
2023/03/10 03:41:42;;;;;;;26.13;14.23;;;1.30;99.90;;;;;;5094184;28;20040;-58
2023/03/10 03:44:08;;;;;;;22.02;12.05;;;1.90;99.90;;;;;;5092956;28;20044;-57
2023/03/10 03:46:34;;;;;;;23.65;13.25;;;1.90;99.90;;;;;;5094252;28;20094;-57
2023/03/10 03:49:00;;;;;;;25.88;12.85;;;1.90;99.90;;;;;;5093992;28;20123;-57
2023/03/10 03:51:26;;;;;;;23.50;12.95;;;1.50;99.90;;;;;;5093676;28;20051;-58
2023/03/10 03:53:52;;;;;;;25.08;12.93;;;1.20;99.90;;;;;;5094431;28;20114;-57
2023/03/10 03:56:18;;;;;;;24.95;12.07;;;1.20;99.90;;;;;;5094077;28;20548;-58
2023/03/10 03:58:43;;;;;;;25.13;13.77;;;1.40;99.90;;;;;;5093732;28;20084;-58
2023/03/10 04:01:09;;;;;;;24.67;12.52;;;1.80;99.90;;;;;;5093768;28;20045;-57
2023/03/10 04:03:35;;;;;;;22.88;12.80;;;1.10;99.90;;;;;;5093732;28;20035;-58
2023/03/10 04:06:01;;;;;;;21.95;12.02;;;1.60;99.90;;;;;;5093997;28;20090;-58
2023/03/10 04:08:27;;;;;;;23.48;12.65;;;1.10;99.90;;;;;;5093695;28;20036;-57
2023/03/10 04:10:54;;;;;;;25.45;13.73;;;1.80;99.90;;;;;;5093886;28;20123;-57
2023/03/10 04:13:20;;;;;;;24.98;12.48;;;1.70;99.90;;;;;;5093514;28;20036;-57
2023/03/10 04:15:45;;;;;;;25.27;13.00;;;1.40;99.90;;;;;;5093522;28;20086;-57
2023/03/10 04:18:12;;;;;;;24.02;12.60;;;1.50;99.90;;;;;;5093295;28;20036;-57
2023/03/10 04:20:38;;;;;;;24.08;12.70;;;1.70;99.90;;;;;;5093611;28;20063;-57
2023/03/10 04:23:03;;;;;;;25.85;12.90;;;1.80;99.90;;;;;;5093517;28;20400;-57
2023/03/10 04:25:29;;;;;;;28.27;12.77;;;1.50;99.90;;;;;;5092190;28;20040;-59
2023/03/10 04:27:58;;;;;;;29.23;13.73;;;1.50;99.90;;;;;;5093320;28;20050;-57
2023/03/10 04:30:28;;;;;;;26.85;13.10;;;1.70;99.90;;;;;;5092210;28;20100;-57
2023/03/10 04:32:57;;;;;;;27.25;14.68;;;1.20;99.90;;;;;;5092960;28;20040;-57
2023/03/10 04:35:24;;;;;;;33.58;14.60;;;1.70;99.90;;;;;;5093034;28;20055;-59
2023/03/10 04:37:49;;;;;;;26.70;14.02;;;1.40;99.90;;;;;;5093314;28;20044;-58
2023/03/10 04:40:15;;;;;;;33.30;15.60;;;1.00;99.90;;;;;;5093208;28;20043;-57
2023/03/10 04:42:41;;;;;;;31.55;16.33;;;1.20;99.90;;;;;;5092981;28;20133;-58
2023/03/10 04:45:07;;;;;;;33.55;15.85;;;1.20;99.90;;;;;;5093444;28;20036;-58
2023/03/10 04:47:33;;;;;;;34.05;16.83;;;0.90;99.90;;;;;;5092812;28;20040;-58
2023/03/10 04:49:58;;;;;;;33.63;16.48;;;1.20;99.90;;;;;;5092790;28;20468;-58
2023/03/10 04:52:24;;;;;;;40.88;19.20;;;1.00;99.90;;;;;;5092743;28;20043;-57
2023/03/10 04:54:50;;;;;;;39.42;19.70;;;1.50;99.90;;;;;;5092969;28;20036;-59
2023/03/10 04:57:15;;;;;;;42.67;19.90;;;1.70;99.90;;;;;;5092987;28;20111;-58
2023/03/10 04:59:41;;;;;;;40.88;19.55;;;1.00;99.90;;;;;;5092517;28;20048;-58
2023/03/10 05:02:07;;;;;;;44.22;22.13;;;1.70;99.90;;;;;;5092648;28;20036;-59
2023/03/10 05:04:33;;;;;;;44.25;21.00;;;1.70;99.90;;;;;;5092695;28;20044;-57
2023/03/10 05:06:58;;;;;;;52.08;22.58;;;0.90;99.90;;;;;;5092633;28;20039;-58
2023/03/10 05:09:24;;;;;;;47.60;22.60;;;1.20;99.90;;;;;;5092511;28;20487;-57
2023/03/10 05:11:50;;;;;;;55.83;23.73;;;1.70;99.90;;;;;;5092588;28;20047;-57
2023/03/10 05:14:16;;;;;;;46.53;23.45;;;1.60;99.90;;;;;;5092336;28;20032;-57
2023/03/10 05:16:42;;;;;;;51.90;24.15;;;1.20;99.90;;;;;;5092278;28;20119;-57
2023/03/10 05:19:08;;;;;;;48.03;23.08;;;0.90;99.90;;;;;;5091076;28;20036;-58
2023/03/10 05:21:34;;;;;;;45.83;23.58;;;1.70;99.90;;;;;;5092446;28;20127;-57
2023/03/10 05:24:00;;;;;;;50.70;24.45;;;1.00;99.90;;;;;;5092368;28;20570;-59
2023/03/10 05:26:26;;;;;;;51.42;23.92;;;1.30;99.90;;;;;;5092419;28;20036;-57
2023/03/10 05:28:52;;;;;;;48.35;23.33;;;1.60;99.90;;;;;;5092222;28;20100;-58
2023/03/10 05:31:25;;;;;;;46.63;23.50;;;0.90;99.90;;;;;;5091163;28;20040;-57
2023/03/10 05:33:53;;;;;;;45.45;21.15;;;1.40;99.90;;;;;;5090213;28;20048;-58
2023/03/10 05:36:19;;;;;;;45.45;22.73;;;1.60;99.90;;;;;;5089408;28;20044;-57
2023/03/10 05:38:45;;;;;;;42.13;20.60;;;1.20;99.90;;;;;;5090501;28;20024;-57
2023/03/10 05:41:11;;;;;;;43.45;20.17;;;0.90;99.90;;;;;;5090587;28;20400;-57
2023/03/10 05:43:38;;;;;;;43.08;20.02;;;0.90;99.90;;;;;;5090062;28;20085;-56
2023/03/10 05:46:04;;;;;;;41.10;20.58;;;0.80;99.90;;;;;;5092315;28;20044;-58
2023/03/10 05:48:30;;;;;;;45.10;20.98;;;1.60;99.90;;;;;;5093669;28;20047;-57
2023/03/10 05:51:07;;;;;;;39.50;18.52;;;1.10;99.90;;;;;;5094703;28;20419;-57
2023/03/10 05:53:34;;;;;;;41.95;19.42;;;1.50;99.90;;;;;;5094769;28;20074;-56
2023/03/10 05:56:10;;;;;;;35.28;17.50;;;1.60;99.90;;;;;;5094855;28;20567;-58
2023/03/10 05:58:36;;;;;;;36.47;18.23;;;1.40;99.90;;;;;;5094745;28;20056;-57
2023/03/10 06:01:03;;;;;;;38.05;18.80;;;1.20;99.90;;;;;;5094509;28;20105;-57
2023/03/10 06:03:28;;;;;;;37.00;17.75;;;1.30;99.90;;;;;;5094619;28;20040;-57
2023/03/10 06:05:56;;;;;;;41.88;17.75;;;1.40;99.90;;;;;;5094698;28;20472;-57
2023/03/10 06:08:22;;;;;;;38.38;17.17;;;0.70;99.90;;;;;;5094492;28;20123;-57
2023/03/10 06:10:48;;;;;;;34.58;17.05;;;1.40;99.90;;;;;;5094540;28;20130;-57
2023/03/10 06:13:14;;;;;;;33.13;16.88;;;0.70;99.90;;;;;;5094694;28;20502;-57
2023/03/10 06:15:39;;;;;;;38.97;15.65;;;1.00;99.90;;;;;;5094586;28;20369;-57
2023/03/10 06:18:05;;;;;;;31.45;15.15;;;0.90;99.90;;;;;;5094738;28;20054;-57
2023/03/10 06:20:31;;;;;;;29.83;15.27;;;1.00;99.90;;;;;;5094850;28;20450;-57
2023/03/10 06:22:57;;;;;;;28.42;15.23;;;1.30;99.90;;;;;;5094952;28;20082;-57
2023/03/10 06:25:22;;;;;;;29.65;13.20;;;0.60;99.90;;;;;;5093234;28;20036;-57
2023/03/10 06:27:48;;;;;;;24.58;11.90;;;0.60;99.90;;;;;;5079419;28;20104;-57
2023/03/10 06:30:15;;;;;;;27.05;11.73;;;0.70;99.90;;;;;;5081976;28;20044;-56
2023/03/10 06:32:41;;;;;;;25.92;11.82;;;1.20;99.90;;;;;;5073801;28;20043;-56
2023/03/10 06:35:08;;;;;;;27.80;12.00;;;1.30;99.90;;;;;;5073726;28;20516;-56
2023/03/10 06:37:35;;;;;;;25.77;12.95;;;0.90;99.90;;;;;;5073817;28;20032;-56
2023/03/10 06:40:00;;;;;;;25.63;12.18;;;0.90;99.90;;;;;;5073759;28;20041;-57
2023/03/10 06:42:26;;;;;;;49.95;15.45;;;1.40;99.90;;;;;;5074070;28;20028;-56
2023/03/10 06:44:55;;;;;;;31.83;13.20;;;0.60;99.90;;;;;;5073434;28;20118;-56
2023/03/10 06:47:20;;;;;;;27.33;12.60;;;1.40;99.90;;;;;;5073732;28;20115;-56
2023/03/10 06:49:46;;;;;;;28.83;13.82;;;1.10;99.90;;;;;;5081299;28;20144;-55
2023/03/10 06:52:12;;;;;;;30.83;13.25;;;1.00;99.90;;;;;;5093770;28;20044;-57
2023/03/10 06:54:37;;;;;;;38.92;14.52;;;0.50;99.90;;;;;;5093567;28;20052;-55
2023/03/10 06:57:04;;;;;;;25.80;12.70;;;1.20;99.90;;;;;;5093470;28;20044;-57
2023/03/10 06:59:31;;;;;;;28.90;12.68;;;1.40;99.90;;;;;;5093723;28;20060;-56
2023/03/10 07:01:57;;;;;;;26.75;13.15;;;0.50;99.90;;;;;;5094013;28;20454;-56
2023/03/10 07:04:23;;;;;;;26.08;12.48;;;1.50;99.90;;;;;;5093464;28;20036;-56
2023/03/10 07:06:48;;;;;;;27.08;13.43;;;0.90;99.90;;;;;;5093532;28;20456;-55
2023/03/10 07:09:14;;;;;;;30.38;13.60;;;0.60;99.90;;;;;;5083363;28;20043;-56
2023/03/10 07:11:39;;;;;;;25.08;11.82;;;1.40;99.90;;;;;;5077765;28;20047;-56
2023/03/10 07:14:05;;;;;;;28.65;11.70;;;1.50;99.90;;;;;;5081336;28;20105;-55
2023/03/10 07:16:31;;;;;;;29.92;11.77;;;0.70;99.90;;;;;;5087221;28;20044;-56
2023/03/10 07:18:57;;;;;;;28.58;12.07;;;1.20;99.90;;;;;;5086112;28;20027;-55
2023/03/10 07:21:23;;;;;;;24.17;10.95;;;0.80;99.90;;;;;;5078008;28;20384;-55
2023/03/10 07:23:49;;;;;;;22.98;10.13;;;1.40;99.90;;;;;;5072341;28;20119;-56
2023/03/10 07:26:17;;;;;;;28.00;10.75;;;1.10;99.90;;;;;;5071713;28;20048;-56
2023/03/10 07:28:43;;;;;;;28.02;11.27;;;0.80;99.90;;;;;;5071673;28;20052;-55
2023/03/10 07:31:11;;;;;;;22.98;11.90;;;1.60;99.90;;;;;;5080583;28;20051;-55
2023/03/10 07:33:37;;;;;;;27.05;13.10;;;1.30;99.90;;;;;;5093092;28;20044;-55
2023/03/10 07:36:09;;;;;;;23.88;11.63;;;0.80;99.90;;;;;;5091536;28;20048;-55
2023/03/10 07:38:35;;;;;;;24.00;13.45;;;1.60;99.90;;;;;;5093019;28;20119;-56
2023/03/10 07:41:08;;;;;;;24.10;11.80;;;1.60;99.90;;;;;;5092408;28;20040;-56
2023/03/10 07:43:34;;;;;;;26.90;12.70;;;1.00;99.90;;;;;;5092958;28;20036;-56
2023/03/10 07:46:05;;;;;;;23.92;11.75;;;1.60;99.90;;;;;;5091369;28;20369;-55
2023/03/10 07:48:30;;;;;;;24.35;12.88;;;1.00;99.90;;;;;;5087674;28;20077;-55
2023/03/10 07:50:57;;;;;;;26.65;12.52;;;1.50;99.90;;;;;;5087556;28;20051;-56
2023/03/10 07:53:24;;;;;;;25.67;11.90;;;1.10;99.90;;;;;;5080472;28;20546;-56
2023/03/10 07:55:50;;;;;;;22.80;11.15;;;1.10;99.90;;;;;;5072078;28;20049;-56
2023/03/10 07:58:15;;;;;;;24.42;11.40;;;1.00;99.90;;;;;;5072266;28;20089;-55
2023/03/10 08:00:41;;;;;;;24.85;11.52;;;1.10;99.90;;;;;;5077607;28;20052;-56
2023/03/10 08:03:07;;;;;;;24.20;11.38;;;1.70;99.90;;;;;;5092370;28;20544;-56
2023/03/10 08:05:32;;;;;;;22.50;11.18;;;1.10;99.90;;;;;;5092324;28;20526;-56
2023/03/10 08:07:59;;;;;;;21.83;11.05;;;1.30;99.90;;;;;;5091377;28;20440;-55
2023/03/10 08:10:24;;;;;;;23.40;11.20;;;1.30;99.90;;;;;;5091827;28;20548;-55
2023/03/10 08:12:52;;;;;;;21.05;11.25;;;1.20;99.90;;;;;;5083055;28;20032;-55
2023/03/10 08:15:18;;;;;;;23.95;11.70;;;1.40;99.90;;;;;;5075503;28;20047;-55
2023/03/10 08:17:43;;;;;;;20.63;10.88;;;1.90;99.90;;;;;;5085718;28;20040;-55
2023/03/10 08:20:10;;;;;;;25.02;12.43;;;1.40;99.90;;;;;;5091598;28;20036;-56
2023/03/10 08:22:35;;;;;;;24.27;11.25;;;1.30;99.90;;;;;;5091322;28;20043;-56
2023/03/10 08:25:01;;;;;;;25.67;11.63;;;1.40;99.90;;;;;;5092156;28;20503;-56
2023/03/10 08:27:27;;;;;;;23.60;10.70;;;1.10;99.90;;;;;;5090507;28;20440;-58
2023/03/10 08:29:52;;;;;;;27.05;12.32;;;1.30;99.90;;;;;;5092083;28;20116;-57
2023/03/10 08:32:18;;;;;;;25.95;12.27;;;1.40;99.90;;;;;;5087790;28;20373;-57
2023/03/10 08:34:44;;;;;;;22.23;10.43;;;1.70;99.90;;;;;;5071485;28;20037;-57
2023/03/10 08:37:11;;;;;;;24.38;11.10;;;1.10;99.90;;;;;;5074260;28;21354;-57
2023/03/10 08:39:37;;;;;;;22.95;11.30;;;1.10;99.90;;;;;;5080134;28;20036;-57
2023/03/10 08:42:02;;;;;;;28.38;13.40;;;1.70;99.90;;;;;;5081335;28;20082;-56
2023/03/10 08:44:28;;;;;;;24.02;12.30;;;1.80;99.90;;;;;;5079443;28;20086;-57
2023/03/10 08:46:54;;;;;;;25.52;12.40;;;1.90;99.90;;;;;;5082856;28;20094;-57
2023/03/10 08:49:21;;;;;;;24.83;11.73;;;1.30;99.90;;;;;;5083394;28;20229;-57
2023/03/10 08:51:47;;;;;;;22.80;11.52;;;1.60;99.90;;;;;;5085352;28;20122;-57
2023/03/10 08:54:15;;;;;;;25.58;12.18;;;1.90;99.90;;;;;;5091060;28;20040;-57
2023/03/10 08:56:42;;;;;;;28.38;11.95;;;1.90;99.90;;;;;;5090267;28;20106;-58
2023/03/10 08:59:08;;;;;;;24.55;12.55;;;1.20;99.90;;;;;;5090760;28;20491;-57
2023/03/10 09:01:36;;;;;;;25.52;12.48;;;1.50;99.90;;;;;;5090940;28;20036;-57
2023/03/10 09:04:03;;;;;;;27.75;12.55;;;1.40;99.90;;;;;;5091117;28;20526;-57
2023/03/10 09:06:30;;;;;;;22.90;11.05;;;1.80;99.90;;;;;;5091257;28;20047;-58
2023/03/10 09:08:56;;;;;;;22.42;10.80;;;1.30;99.90;;;;;;5091015;28;20032;-59
2023/03/10 09:11:27;;;;;;;21.98;10.80;;;1.40;99.90;;;;;;5091028;28;20061;-58
2023/03/10 09:13:54;;;;;;;25.00;11.40;;;1.80;99.90;;;;;;5080626;28;20071;-58
2023/03/10 09:16:20;;;;;;;22.85;12.07;;;1.40;99.90;;;;;;5081149;28;20036;-57
2023/03/10 09:18:46;;;;;;;24.35;10.75;;;1.50;99.90;;;;;;5080151;28;20044;-57
2023/03/10 09:21:14;;;;;;;20.70;10.52;;;1.90;99.90;;;;;;5077378;28;20497;-57
2023/03/10 09:23:42;;;;;;;24.55;10.85;;;1.60;99.90;;;;;;5087769;28;20126;-57
2023/03/10 09:26:09;;;;;;;23.88;11.68;;;2.00;99.90;;;;;;5081062;28;20039;-57
2023/03/10 09:28:35;;;;;;;23.92;10.70;;;1.50;99.90;;;;;;5078557;28;20048;-57
2023/03/10 09:31:03;;;;;;;21.83;10.45;;;1.90;99.90;;;;;;5080295;28;20036;-57
2023/03/10 09:33:29;;;;;;;21.48;10.63;;;1.90;99.90;;;;;;5079238;28;20055;-58
2023/03/10 09:35:56;;;;;;;20.50;9.52;;;1.40;99.90;;;;;;5081121;28;20399;-57
2023/03/10 09:38:22;;;;;;;19.38;9.07;;;1.70;99.90;;;;;;5079885;28;20037;-57
2023/03/10 09:41:08;;;;;;;25.15;10.15;;;1.30;99.90;;;;;;5079674;28;20459;-57
2023/03/10 09:43:43;;;;;;;18.75;7.85;;;1.50;99.90;;;;;;5079605;28;20384;-57
2023/03/10 09:46:27;;;;;;;22.23;9.85;;;2.00;99.90;;;;;;5074645;28;20075;-56
2023/03/10 09:49:03;;;;;;;20.40;9.73;;;1.40;99.90;;;;;;5088219;28;20043;-57
2023/03/10 09:51:29;;;;;;;20.17;9.43;;;1.70;99.90;;;;;;5089547;28;20551;-57
2023/03/10 09:54:10;;;;;;;21.60;9.30;;;1.60;99.90;;;;;;5090013;28;20124;-57
2023/03/10 09:56:37;;;;;;;21.75;9.52;;;1.80;99.90;;;;;;5089763;28;20052;-57
2023/03/10 09:59:27;;;;;;;21.13;9.02;;;1.80;99.90;;;;;;5090158;28;20024;-57
2023/03/10 10:01:53;;;;;;;19.88;9.55;;;1.90;99.90;;;;;;5089981;28;20153;-57
2023/03/10 10:04:35;;;;;;;21.70;10.68;;;1.50;99.90;;;;;;5087732;28;20051;-57
2023/03/10 10:07:04;;;;;;;22.37;11.33;;;1.50;99.90;;;;;;5070105;28;20071;-57
2023/03/10 10:09:46;;;;;;;21.15;10.43;;;2.10;99.90;;;;;;5089155;28;20069;-57
2023/03/10 10:12:13;;;;;;;20.50;11.20;;;2.20;99.90;;;;;;5089036;28;20067;-57
2023/03/10 10:14:38;;;;;;;22.45;12.18;;;1.80;99.90;;;;;;5090125;28;20051;-57
2023/03/10 10:17:27;;;;;;;22.73;11.77;;;1.60;99.90;;;;;;5090322;28;20040;-57
2023/03/10 10:19:53;;;;;;;22.65;11.10;;;1.60;99.90;;;;;;5090009;28;20032;-57
2023/03/10 10:22:30;;;;;;;21.98;12.40;;;1.80;99.90;;;;;;5090121;28;20043;-56
2023/03/10 10:25:08;;;;;;;22.75;11.50;;;1.80;99.90;;;;;;5089771;28;20555;-57
2023/03/10 10:27:37;;;;;;;26.27;13.18;;;1.50;99.90;;;;;;5089961;28;20526;-57
2023/03/10 10:30:34;;;;;;;22.05;11.40;;;1.50;99.90;;;;;;5089963;28;20044;-57
2023/03/10 10:33:08;;;;;;;21.83;11.95;;;1.60;99.90;;;;;;5093177;28;20071;-57
2023/03/10 10:35:37;;;;;;;26.17;13.07;;;1.60;99.90;;;;;;5093575;28;20040;-57
2023/03/10 10:38:03;;;;;;;21.70;12.75;;;2.10;99.90;;;;;;5093944;28;20145;-57
2023/03/10 10:40:32;;;;;;;24.83;12.10;;;1.60;99.90;;;;;;5094004;28;20447;-56
2023/03/10 10:43:04;;;;;;;23.63;13.00;;;1.70;99.90;;;;;;5093892;28;20048;-56
2023/03/10 10:45:36;;;;;;;26.55;11.95;;;1.50;99.90;;;;;;5092807;28;20097;-56
2023/03/10 10:48:02;;;;;;;25.50;11.63;;;1.60;99.90;;;;;;5093997;28;20040;-55
2023/03/10 10:50:30;;;;;;;25.63;10.93;;;1.50;99.90;;;;;;5093625;28;20123;-56
2023/03/10 10:53:17;;;;;;;23.00;11.00;;;1.50;99.90;;;;;;5093517;28;20116;-58
2023/03/10 10:55:45;;;;;;;25.35;11.57;;;1.50;99.90;;;;;;5093455;28;20039;-57
2023/03/10 10:58:30;;;;;;;26.30;12.13;;;2.00;99.90;;;;;;5093233;28;20040;-57
2023/03/10 11:00:59;;;;;;;23.25;11.40;;;1.50;99.90;;;;;;5082174;28;20059;-57
2023/03/10 11:03:29;;;;;;;19.95;10.40;;;1.40;99.90;;;;;;5082956;28;20044;-57
2023/03/10 11:05:56;;;;;;;26.02;11.85;;;1.40;99.90;;;;;;5081126;28;20039;-57
2023/03/10 11:08:36;;;;;;;24.77;11.75;;;1.60;99.90;;;;;;5072446;28;20049;-57
2023/03/10 11:11:22;;;;;;;23.50;11.70;;;2.00;99.90;;;;;;5073072;28;20048;-57
2023/03/10 11:14:04;;;;;;;25.92;11.35;;;1.70;99.90;;;;;;5072510;28;20041;-57
2023/03/10 11:16:48;;;;;;;22.70;10.75;;;1.40;99.90;;;;;;5072562;28;20078;-57
2023/03/10 11:19:55;;;;;;;24.95;12.13;;;1.40;99.90;;;;;;5080758;28;20194;-57
2023/03/10 11:22:38;;;;;;;23.70;12.45;;;1.60;99.90;;;;;;5060633;28;20098;-58
2023/03/10 11:25:10;;;;;;;19.92;11.25;;;1.40;99.90;;;;;;5079139;28;20094;-59
2023/03/10 11:27:54;;;;;;;29.02;12.75;;;1.60;99.90;;;;;;5083622;28;20118;-58
2023/03/10 11:30:47;;;;;;;25.15;12.80;;;2.00;99.90;;;;;;5082476;28;20064;-57
2023/03/10 11:33:16;;;;;;;24.58;12.20;;;1.60;99.90;;;;;;5062152;28;20216;-59
2023/03/10 11:35:51;;;;;;;25.02;12.77;;;1.40;99.90;;;;;;5064925;28;20047;-59
2023/03/10 11:38:23;;;;;;;24.90;11.95;;;1.80;99.90;;;;;;5081956;28;20039;-58
2023/03/10 11:40:53;;;;;;;26.17;11.98;;;2.00;99.90;;;;;;5082282;28;20039;-58
2023/03/10 11:43:19;;;;;;;26.38;13.25;;;1.40;99.90;;;;;;5081825;28;20035;-58
2023/03/10 11:45:52;;;;;;;25.50;13.38;;;1.90;99.90;;;;;;5084203;28;20036;-58
2023/03/10 11:48:36;;;;;;;27.02;13.27;;;2.10;99.90;;;;;;5083210;28;20123;-57
2023/03/10 11:51:04;;;;;;;26.95;14.75;;;2.00;99.90;;;;;;5086750;28;20036;-57
2023/03/10 11:53:53;;;;;;;25.65;13.05;;;2.20;99.90;;;;;;5084175;28;20426;-57
2023/03/10 11:56:21;;;;;;;26.75;12.93;;;1.60;99.90;;;;;;5083101;28;20040;-57
2023/03/10 11:58:50;;;;;;;25.25;12.70;;;2.10;99.90;;;;;;5081921;28;20380;-57
2023/03/10 12:01:53;;;;;;;26.15;12.85;;;1.70;99.90;;;;;;5082830;28;20617;-58
2023/03/10 12:04:40;;;;;;;24.92;12.18;;;1.70;99.90;;;;;;5065497;28;20472;-58
2023/03/10 12:07:26;;;;;;;27.48;13.60;;;2.40;99.90;;;;;;5081386;28;20032;-57
2023/03/10 12:09:55;;;;;;;27.48;14.13;;;1.80;99.90;;;;;;5082448;28;20078;-57
2023/03/10 12:12:35;;;;;;;26.83;14.13;;;2.10;99.90;;;;;;5084688;28;20142;-57
2023/03/10 12:15:24;;;;;;;26.83;13.20;;;1.80;99.90;;;;;;5080937;28;20042;-56
2023/03/10 12:17:51;;;;;;;24.73;12.48;;;1.80;99.90;;;;;;5081579;28;20106;-56
2023/03/10 12:20:17;;;;;;;27.17;12.43;;;1.80;99.90;;;;;;5082635;28;20040;-57
2023/03/10 12:22:50;;;;;;;23.77;13.70;;;2.40;99.90;;;;;;5082323;28;20093;-57
2023/03/10 12:25:28;;;;;;;21.92;11.20;;;1.80;99.90;;;;;;5082503;28;20039;-57
2023/03/10 12:28:15;;;;;;;26.33;12.82;;;2.30;99.90;;;;;;5082327;28;20033;-57
2023/03/10 12:31:05;;;;;;;25.00;12.80;;;1.90;99.90;;;;;;5080922;28;20213;-56
2023/03/10 12:33:38;;;;;;;24.77;11.93;;;1.90;99.90;;;;;;5080764;28;20044;-57
2023/03/10 12:36:30;;;;;;;24.30;12.90;;;2.50;99.90;;;;;;5083416;28;20040;-58
2023/03/10 12:38:57;;;;;;;26.27;13.60;;;2.40;99.90;;;;;;5080631;28;20036;-58
2023/03/10 12:41:26;;;;;;;22.27;12.88;;;2.40;99.90;;;;;;5082956;28;20042;-57
2023/03/10 12:43:53;;;;;;;24.77;12.77;;;2.30;99.90;;;;;;5090025;28;20545;-57
2023/03/10 12:46:39;;;;;;;24.15;12.18;;;2.20;99.90;;;;;;5092791;28;20043;-58
2023/03/10 12:49:28;;;;;;;25.35;13.38;;;2.40;99.90;;;;;;5085829;28;20040;-57